AirNav   Everest Fuels
 
 1088 users online  

3MI8 Bendix Heliport
Southfield, Michigan, USA

GOING TO SOUTHFIELD?


FAA INFORMATION EFFECTIVE 08 OCTOBER 2020

Location

FAA Identifier: 3MI8
Lat/Long: 42-28-50.1270N 083-14-51.7460W
42-28.835450N 083-14.862433W
42.4805908,-83.2477072
(estimated)
Elevation: 715 ft. / 218 m (estimated)
Variation: 06W (1985)
Time zone: UTC -4 (UTC -5 during Standard Time)
Zip code: 48075

Heliport Operations

Heliport use: Private use. Permission required prior to landing
Activation date: 09/1978
Control tower: no
ARTCC: CLEVELAND CENTER
FSS: LANSING FLIGHT SERVICE STATION
Attendance: UNATNDD
Wind indicator: yes
Segmented circle: no

Heliport Communications

WX AWOS-3 at VLL (5 nm NE): 119.475 (248-288-4649)
WX ASOS at DET (11 nm E): PHONE 313-371-9696
WX ASOS at PTK (13 nm NW): 125.025 (248-886-8551)
WX ASOS at DTW (17 nm S): PHONE 734-955-5015
WX ASOS at YIP (19 nm SW): PHONE 734-961-6843

Nearby radio navigation aids

VOR radial/distance  VOR name  Freq  Var
SVMr077/15.9SALEM VORTAC114.3003W
DXOr024/16.9DETROIT VOR/DME113.4006W
CRLr023/27.6CARLETON VOR/DME115.7003W
FNTr149/36.5FLINT VORTAC116.9006W

 
NDB name  Hdg/Dist  Freq  Var  ID
GROSSE ILE357/23.241907WRYS .-. -.-- ...
TECUMSEH053/39.023906WTCU - -.-. ..-

Heliport Services

Runway Information

Helipad H1

Dimensions: 40 x 30 ft. / 12 x 9 m
Surface: asphalt
Latitude: 42-28.835450N
Longitude: 083-14.862433W
Elevation: 715.0 ft.
Traffic pattern: leftleft

Heliport Ownership and Management from official FAA records

Ownership: Privately-owned
Owner: BLUE CARE NETWORK
20500 CIVIC CENTER DRIVE
SOUTHFIELD, MI 48037
Phone 248-455-3518
Manager: PHILIP M. O'LEARY
600 E. LAFAYETTE
DETROIT, MI 48226
Phone 313-225-5670

Additional Remarks

FOR CD CTC DETROIT APCH AT 800-499-8181.

Instrument Procedures

There are no published instrument procedures at 3MI8.

Some nearby airports with instrument procedures:

KVLL - Oakland/Troy Airport (5 nm NE)
KDET - Coleman A Young Municipal Airport (11 nm E)
1D2 - Canton-Plymouth-Mettetal Airport (12 nm SW)
KPTK - Oakland County International Airport (13 nm NW)
Y47 - Oakland Southwest Airport (17 nm W)
KDTW - Detroit Metropolitan Wayne County Airport (17 nm S)
KYIP - Willow Run Airport (19 nm SW)
KMTC - Selfridge Air National Guard Base (20 nm NE)
 
Loc | Ops | Rwys | IFR | FBO | Links
Com | Nav | Svcs | Stats | Notes
Area around 3MI8 (Bendix Heliport)
 
Road maps at: MapQuest Bing Google
 
Aerial photo
No photo
 
Sectional chart

 
Airport distance calculator
Flying to Bendix Heliport? Find the distance to fly.

From to 3MI8

Sunrise and sunset
Times for 28-Oct-2020
 Local
(UTC-4)
 Zulu
(UTC)
Morning civil twilight07:3511:35
Sunrise08:0412:04
Sunset18:3022:30
Evening civil twilight18:5922:59

Current date and time
Zulu (UTC)  29-Oct-2020 00:40:50
Local (UTC-4)  28-Oct-2020 20:40:50
 
METAR
KVLL 
5nm NE 
290015Z AUTO 21003KT 10SM CLR 09/M01 A2998 RMK AO2 T00931010
KDET 
11nm SE 
282353Z 24009KT 10SM CLR 09/M01 A2998 RMK AO2 SLP155 T00941006 10122 20094 53001
KPTK 
13nm NW 
282353Z 23005KT 10SM BKN120 OVC170 08/M02 A2996 RMK AO2 SLP154 T00781017 10117 20078 53004
KDTW 
15nm S 
282353Z 23006KT 10SM OVC250 08/00 A2998 RMK AO2 SLP156 T00830000 10128 20083 55003
CYQG 
18nm SE 
290000Z AUTO 22006KT 9SM CLR 08/02 A2998 RMK SLP157
KYIP 
20nm SW 
282353Z 22007KT 10SM CLR 09/01 A2998 RMK AO2 SLP152 T00890011 10133 20089 55003
TAF
KDET 
11nm SE 
281727Z 2818/2918 24012KT P6SM SCT250 FM282200 22004KT P6SM BKN250 FM291300 01008KT P6SM BKN070 OVC120
KPTK 
13nm NW 
282106Z 2821/2918 23014KT P6SM BKN250 FM282300 23004KT P6SM BKN250 FM291300 01008KT P6SM SCT080 BKN150 FM291600 01010KT P6SM SCT028 OVC150
KDTW 
15nm S 
281727Z 2818/2924 24012KT P6SM SCT250 FM282200 22004KT P6SM BKN250 FM291300 01008KT P6SM BKN070 OVC120 FM291900 02011G20KT P6SM OVC035
CYQG 
18nm SE 
281740Z 2818/2918 25012KT P6SM FEW030 BECMG 2822/2824 25008KT BECMG 2905/2907 VRB03KT FM290900 35005KT P6SM OVC200 RMK FCST BASED ON AUTO OBS. NXT FCST BY 290000Z
KYIP 
20nm SW 
281727Z 2818/2918 24012KT P6SM SCT250 FM282200 22004KT P6SM BKN250 FM291300 01008KT P6SM BKN070 OVC120
NOTAMs
Click for the latest NOTAMs
NOTAMs are issued by the DoD/FAA and will open in a separate window not controlled by AirNav.

 

 
 

Would you like to see your business listed on this page?

 If your business provides an interesting product or service to pilots, flight crews, aircraft, or users of the Bendix Heliport, you should consider listing it here.  To start the listing process, click on the button below
 
Add a business
 

Other Pages about Bendix Heliport

Update a link
 
Copyright © AirNav, LLC. All rights reserved. Privacy Policy  Contact